ACA1573 CYUL-KATL
Flight info
| Callsign | ACA1573 |
|---|---|
| Flight time | N/A |
| Altitude | 34000 |
| Route | FAWNS DCT BUGSY DCT SYR J59 PSB DCT HACKS DCT HVQ DCT HLRRY ONDRE1 |
| Aircraft | A320/M-SDE3FGHIRWY/LB1 |
Departure
| Time | 2026-05-06 16:59 |
|---|---|
| Airport | Montreal / Pierre Elliott Trudeau International Airport (CYUL) |
Arrival
| Time | N/A |
|---|---|
| Airport | Hartsfield Jackson Atlanta International Airport (KATL) |
| Time | Latitude | Longitude | Altitude | Speed | Heading |
|---|---|---|---|---|---|
| 2026-05-06 16:39 | 45.45699 | -73.75399 | 105 ft | 0 kts | 118° |
| 2026-05-06 16:46 | 45.45700 | -73.75400 | 105 ft | 1 kts | 118° |
| 2026-05-06 16:46 | 45.45709 | -73.75425 | 105 ft | 4 kts | 114° |
| 2026-05-06 16:46 | 45.45714 | -73.75460 | 105 ft | 4 kts | 67° |
| 2026-05-06 16:46 | 45.45698 | -73.75487 | 103 ft | 4 kts | 30° |
| 2026-05-06 16:47 | 45.45692 | -73.75492 | 103 ft | 1 kts | 28° |
| 2026-05-06 16:50 | 45.45706 | -73.75481 | 103 ft | 8 kts | 27° |
| 2026-05-06 16:51 | 45.45766 | -73.75521 | 105 ft | 7 kts | 276° |
| 2026-05-06 16:51 | 45.45745 | -73.75622 | 105 ft | 14 kts | 252° |
| 2026-05-06 16:51 | 45.45721 | -73.75758 | 105 ft | 16 kts | 267° |
| 2026-05-06 16:51 | 45.45731 | -73.75924 | 105 ft | 17 kts | 280° |
| 2026-05-06 16:52 | 45.45811 | -73.76032 | 104 ft | 16 kts | 347° |
| 2026-05-06 16:52 | 45.45916 | -73.76055 | 104 ft | 14 kts | 356° |
| 2026-05-06 16:52 | 45.46001 | -73.76061 | 105 ft | 11 kts | 358° |
| 2026-05-06 16:52 | 45.46045 | -73.76023 | 104 ft | 13 kts | 57° |
| 2026-05-06 16:53 | 45.46107 | -73.75938 | 102 ft | 12 kts | 42° |
| 2026-05-06 16:53 | 45.46127 | -73.75812 | 102 ft | 16 kts | 88° |
| 2026-05-06 16:53 | 45.46185 | -73.75727 | 102 ft | 12 kts | 1° |
| 2026-05-06 16:53 | 45.46254 | -73.75730 | 104 ft | 10 kts | 358° |
| 2026-05-06 16:54 | 45.46376 | -73.75706 | 104 ft | 22 kts | 14° |
| 2026-05-06 16:54 | 45.46501 | -73.75597 | 104 ft | 21 kts | 42° |
| 2026-05-06 16:54 | 45.46626 | -73.75434 | 106 ft | 27 kts | 43° |
| 2026-05-06 16:54 | 45.46762 | -73.75256 | 107 ft | 26 kts | 43° |
| 2026-05-06 16:55 | 45.46894 | -73.75083 | 109 ft | 26 kts | 43° |
| 2026-05-06 16:55 | 45.47022 | -73.74916 | 111 ft | 25 kts | 42° |
| 2026-05-06 16:55 | 45.47148 | -73.74750 | 113 ft | 24 kts | 43° |
| 2026-05-06 16:55 | 45.47274 | -73.74585 | 114 ft | 28 kts | 43° |
| 2026-05-06 16:56 | 45.47425 | -73.74387 | 114 ft | 30 kts | 42° |
| 2026-05-06 16:56 | 45.47579 | -73.74186 | 112 ft | 30 kts | 42° |
| 2026-05-06 16:56 | 45.47734 | -73.73982 | 111 ft | 30 kts | 42° |
| 2026-05-06 16:56 | 45.47889 | -73.73783 | 110 ft | 30 kts | 43° |
| 2026-05-06 16:57 | 45.48032 | -73.73593 | 111 ft | 23 kts | 42° |
| 2026-05-06 16:57 | 45.48135 | -73.73459 | 111 ft | 18 kts | 42° |
| 2026-05-06 16:57 | 45.48225 | -73.73415 | 111 ft | 12 kts | 324° |
| 2026-05-06 16:57 | 45.48269 | -73.73536 | 112 ft | 16 kts | 280° |
| 2026-05-06 16:58 | 45.48260 | -73.73684 | 113 ft | 15 kts | 231° |
| 2026-05-06 16:58 | 45.48169 | -73.73805 | 113 ft | 28 kts | 223° |
| 2026-05-06 16:58 | 45.47843 | -73.74230 | 112 ft | 97 kts | 222° |
| 2026-05-06 16:58 | 45.47204 | -73.75067 | 114 ft | 150 kts | 222° |
| 2026-05-06 16:59 | 45.46355 | -73.76179 | 423 ft | 168 kts | 222° |
| 2026-05-06 16:59 | 45.45524 | -73.77297 | 1417 ft | 164 kts | 224° |
| 2026-05-06 16:59 | 45.44660 | -73.78485 | 1785 ft | 183 kts | 225° |
| 2026-05-06 16:59 | 45.43678 | -73.79832 | 2079 ft | 207 kts | 225° |
| 2026-05-06 17:00 | 45.42598 | -73.81304 | 2624 ft | 222 kts | 225° |
| 2026-05-06 17:00 | 45.41463 | -73.82836 | 3466 ft | 225 kts | 224° |
| 2026-05-06 17:00 | 45.40119 | -73.84022 | 4339 ft | 231 kts | 209° |
| 2026-05-06 17:00 | 45.38637 | -73.84950 | 5214 ft | 233 kts | 209° |
| 2026-05-06 17:01 | 45.37157 | -73.85866 | 6049 ft | 235 kts | 210° |
| 2026-05-06 17:01 | 45.35639 | -73.86806 | 6829 ft | 239 kts | 210° |
| 2026-05-06 17:01 | 45.34113 | -73.87750 | 7572 ft | 243 kts | 210° |
| 2026-05-06 17:01 | 45.32542 | -73.88720 | 8314 ft | 247 kts | 210° |
| 2026-05-06 17:02 | 45.30949 | -73.89704 | 9060 ft | 251 kts | 209° |
| 2026-05-06 17:02 | 45.29351 | -73.90692 | 9776 ft | 256 kts | 209° |
| 2026-05-06 17:02 | 45.27691 | -73.91719 | 10301 ft | 267 kts | 209° |
| 2026-05-06 17:02 | 45.25910 | -73.92826 | 10483 ft | 290 kts | 209° |
| 2026-05-06 17:03 | 45.24006 | -73.94004 | 10607 ft | 312 kts | 208° |
| 2026-05-06 17:03 | 45.21948 | -73.95272 | 10836 ft | 329 kts | 208° |
| 2026-05-06 17:03 | 45.19820 | -73.96571 | 11399 ft | 334 kts | 208° |
| 2026-05-06 17:03 | 45.17672 | -73.97880 | 12047 ft | 337 kts | 208° |
| 2026-05-06 17:04 | 45.15509 | -73.99196 | 12720 ft | 338 kts | 208° |
| 2026-05-06 17:04 | 45.13341 | -74.00516 | 13369 ft | 340 kts | 208° |
| 2026-05-06 17:04 | 45.11174 | -74.01838 | 13967 ft | 343 kts | 208° |
| 2026-05-06 17:04 | 45.08967 | -74.03185 | 14524 ft | 346 kts | 208° |
| 2026-05-06 17:05 | 45.06747 | -74.04540 | 15051 ft | 349 kts | 208° |
| 2026-05-06 17:05 | 45.04502 | -74.05906 | 15559 ft | 353 kts | 208° |
| 2026-05-06 17:05 | 45.02239 | -74.07278 | 16072 ft | 356 kts | 207° |
| 2026-05-06 17:05 | 44.99923 | -74.08609 | 16611 ft | 362 kts | 203° |
| 2026-05-06 17:06 | 44.97459 | -74.09417 | 17123 ft | 372 kts | 193° |
| 2026-05-06 17:06 | 44.94861 | -74.09906 | 17651 ft | 376 kts | 193° |
| 2026-05-06 17:06 | 44.92286 | -74.10384 | 18167 ft | 379 kts | 193° |
| 2026-05-06 17:06 | 44.89649 | -74.10878 | 18618 ft | 382 kts | 193° |
| 2026-05-06 17:07 | 44.87002 | -74.11382 | 19069 ft | 384 kts | 193° |
| 2026-05-06 17:07 | 44.84335 | -74.11890 | 19508 ft | 387 kts | 193° |
| 2026-05-06 17:07 | 44.81688 | -74.12391 | 19947 ft | 389 kts | 193° |
| 2026-05-06 17:07 | 44.78976 | -74.12899 | 20386 ft | 392 kts | 193° |
| 2026-05-06 17:08 | 44.76269 | -74.13447 | 20806 ft | 392 kts | 197° |
| 2026-05-06 17:08 | 44.73700 | -74.14495 | 21213 ft | 387 kts | 206° |
| 2026-05-06 17:08 | 44.71294 | -74.16179 | 21616 ft | 384 kts | 216° |
| 2026-05-06 17:08 | 44.69153 | -74.18424 | 22010 ft | 383 kts | 225° |
| 2026-05-06 17:09 | 44.67232 | -74.21038 | 22384 ft | 384 kts | 227° |
| 2026-05-06 17:09 | 44.65330 | -74.23654 | 22754 ft | 386 kts | 227° |
| 2026-05-06 17:09 | 44.63394 | -74.26306 | 23114 ft | 389 kts | 227° |
| 2026-05-06 17:09 | 44.61467 | -74.28943 | 23474 ft | 391 kts | 227° |
| 2026-05-06 17:10 | 44.59506 | -74.31620 | 23785 ft | 393 kts | 226° |
| 2026-05-06 17:10 | 44.57537 | -74.34302 | 24102 ft | 394 kts | 226° |
| 2026-05-06 17:10 | 44.55558 | -74.36992 | 24407 ft | 396 kts | 226° |
| 2026-05-06 17:10 | 44.53601 | -74.39651 | 24702 ft | 397 kts | 226° |
| 2026-05-06 17:11 | 44.51608 | -74.42358 | 25007 ft | 399 kts | 226° |
| 2026-05-06 17:11 | 44.49596 | -74.45082 | 25302 ft | 400 kts | 226° |
| 2026-05-06 17:11 | 44.47587 | -74.47802 | 25590 ft | 402 kts | 226° |
| 2026-05-06 17:11 | 44.45574 | -74.50530 | 25874 ft | 403 kts | 226° |
| 2026-05-06 17:12 | 44.43573 | -74.53237 | 26135 ft | 405 kts | 226° |
| 2026-05-06 17:12 | 44.41538 | -74.55986 | 26382 ft | 406 kts | 226° |
| 2026-05-06 17:12 | 44.39496 | -74.58745 | 26618 ft | 407 kts | 226° |
| 2026-05-06 17:12 | 44.37473 | -74.61479 | 26848 ft | 409 kts | 226° |
| 2026-05-06 17:13 | 44.35421 | -74.64245 | 27072 ft | 410 kts | 226° |
| 2026-05-06 17:13 | 44.33357 | -74.67028 | 27287 ft | 411 kts | 226° |
| 2026-05-06 17:13 | 44.31317 | -74.69773 | 27521 ft | 411 kts | 226° |
| 2026-05-06 17:13 | 44.29247 | -74.72550 | 27827 ft | 410 kts | 226° |
| 2026-05-06 17:14 | 44.27185 | -74.75309 | 28143 ft | 409 kts | 226° |
| 2026-05-06 17:14 | 44.25126 | -74.78059 | 28444 ft | 408 kts | 226° |
| 2026-05-06 17:14 | 44.23102 | -74.80763 | 28738 ft | 407 kts | 226° |
| 2026-05-06 17:14 | 44.21055 | -74.83502 | 29043 ft | 406 kts | 226° |
| 2026-05-06 17:15 | 44.19014 | -74.86236 | 29362 ft | 405 kts | 226° |
| 2026-05-06 17:15 | 44.17004 | -74.88931 | 29665 ft | 404 kts | 226° |
| 2026-05-06 17:15 | 44.14968 | -74.91658 | 29957 ft | 404 kts | 226° |
| 2026-05-06 17:15 | 44.12938 | -74.94372 | 30209 ft | 403 kts | 226° |
| 2026-05-06 17:16 | 44.10917 | -74.97060 | 30452 ft | 402 kts | 225° |
| 2026-05-06 17:16 | 44.08912 | -74.99714 | 30695 ft | 402 kts | 225° |
| 2026-05-06 17:16 | 44.06887 | -75.02394 | 30942 ft | 401 kts | 226° |
| 2026-05-06 17:16 | 44.04858 | -75.05079 | 31204 ft | 401 kts | 226° |
| 2026-05-06 17:17 | 44.02833 | -75.07761 | 31475 ft | 400 kts | 226° |
| 2026-05-06 17:17 | 44.00843 | -75.10405 | 31738 ft | 399 kts | 226° |
| 2026-05-06 17:17 | 43.98829 | -75.13079 | 32013 ft | 399 kts | 226° |
| 2026-05-06 17:17 | 43.96810 | -75.15748 | 32285 ft | 398 kts | 226° |
| 2026-05-06 17:18 | 43.94825 | -75.18374 | 32546 ft | 397 kts | 226° |
| 2026-05-06 17:18 | 43.92821 | -75.21022 | 32834 ft | 396 kts | 226° |
| 2026-05-06 17:18 | 43.90822 | -75.23656 | 33116 ft | 395 kts | 226° |
| 2026-05-06 17:18 | 43.88846 | -75.26256 | 33383 ft | 394 kts | 226° |
| 2026-05-06 17:19 | 43.86852 | -75.28884 | 33653 ft | 393 kts | 227° |
| 2026-05-06 17:19 | 43.84862 | -75.31508 | 33829 ft | 394 kts | 227° |
| 2026-05-06 17:19 | 43.82872 | -75.34125 | 33864 ft | 395 kts | 227° |
| 2026-05-06 17:20 | 43.78875 | -75.39363 | 33847 ft | 396 kts | 227° |
| 2026-05-06 17:20 | 43.74888 | -75.44580 | 33852 ft | 395 kts | 227° |
| 2026-05-06 17:21 | 43.70885 | -75.49811 | 33843 ft | 395 kts | 227° |
| 2026-05-06 17:21 | 43.66883 | -75.55030 | 33843 ft | 395 kts | 227° |
| 2026-05-06 17:22 | 43.62881 | -75.60225 | 33836 ft | 395 kts | 227° |
| 2026-05-06 17:22 | 43.58890 | -75.65412 | 33831 ft | 395 kts | 227° |
| 2026-05-06 17:23 | 43.54898 | -75.70595 | 33837 ft | 395 kts | 227° |
| 2026-05-06 17:23 | 43.50877 | -75.75802 | 33834 ft | 396 kts | 227° |
| 2026-05-06 17:24 | 43.46867 | -75.80970 | 33826 ft | 396 kts | 227° |
| 2026-05-06 17:24 | 43.42832 | -75.86169 | 33825 ft | 396 kts | 227° |
| 2026-05-06 17:25 | 43.38811 | -75.91351 | 33832 ft | 397 kts | 227° |
| 2026-05-06 17:25 | 43.34791 | -75.96514 | 33835 ft | 397 kts | 227° |
| 2026-05-06 17:26 | 43.30739 | -76.01705 | 33842 ft | 397 kts | 227° |
| 2026-05-06 17:26 | 43.26715 | -76.06856 | 33845 ft | 397 kts | 227° |
| 2026-05-06 17:27 | 43.22692 | -76.11998 | 33848 ft | 396 kts | 227° |
| 2026-05-06 17:27 | 43.18645 | -76.17150 | 33851 ft | 397 kts | 227° |
| 2026-05-06 17:28 | 43.14339 | -76.21896 | 33854 ft | 404 kts | 217° |
| 2026-05-06 17:28 | 43.09511 | -76.25878 | 33848 ft | 404 kts | 217° |
| 2026-05-06 17:29 | 43.04694 | -76.29860 | 33847 ft | 404 kts | 218° |
| 2026-05-06 17:29 | 42.99906 | -76.33820 | 33844 ft | 404 kts | 218° |
| 2026-05-06 17:30 | 42.95093 | -76.37793 | 33847 ft | 404 kts | 218° |
| 2026-05-06 17:30 | 42.90278 | -76.41759 | 33842 ft | 404 kts | 218° |
| 2026-05-06 17:31 | 42.85490 | -76.45700 | 33847 ft | 404 kts | 218° |
| 2026-05-06 17:31 | 42.80670 | -76.49656 | 33845 ft | 404 kts | 218° |
| 2026-05-06 17:32 | 42.75857 | -76.53598 | 33850 ft | 404 kts | 219° |
| 2026-05-06 17:32 | 42.71065 | -76.57518 | 33850 ft | 404 kts | 219° |
| 2026-05-06 17:33 | 42.66221 | -76.61471 | 33856 ft | 404 kts | 219° |
| 2026-05-06 17:33 | 42.61418 | -76.65374 | 33855 ft | 404 kts | 219° |
| 2026-05-06 17:34 | 42.56610 | -76.69280 | 33856 ft | 403 kts | 219° |
| 2026-05-06 17:34 | 42.51801 | -76.73191 | 33859 ft | 403 kts | 219° |
| 2026-05-06 17:35 | 42.47007 | -76.77074 | 33860 ft | 402 kts | 219° |
| 2026-05-06 17:35 | 42.42186 | -76.80970 | 33869 ft | 402 kts | 220° |
| 2026-05-06 17:36 | 42.34981 | -76.86783 | 33852 ft | 402 kts | 220° |
| 2026-05-06 17:36 | 42.30177 | -76.90651 | 33843 ft | 402 kts | 220° |
| 2026-05-06 17:37 | 42.25383 | -76.94501 | 33843 ft | 395 kts | 221° |
| 2026-05-06 17:37 | 42.20728 | -76.98202 | 33847 ft | 384 kts | 222° |
| 2026-05-06 17:38 | 42.16135 | -77.01887 | 33848 ft | 382 kts | 222° |
| 2026-05-06 17:38 | 42.11578 | -77.05550 | 33847 ft | 382 kts | 222° |
| 2026-05-06 17:39 | 42.07028 | -77.09190 | 33854 ft | 381 kts | 222° |
| 2026-05-06 17:39 | 42.02441 | -77.12830 | 33857 ft | 382 kts | 222° |
| 2026-05-06 17:40 | 41.97882 | -77.16451 | 33857 ft | 382 kts | 222° |
| 2026-05-06 17:40 | 41.93294 | -77.20093 | 33854 ft | 382 kts | 222° |
| 2026-05-06 17:41 | 41.88746 | -77.23706 | 33854 ft | 382 kts | 223° |
| 2026-05-06 17:41 | 41.84936 | -77.26730 | 33860 ft | 381 kts | 222° |
| 2026-05-06 17:42 | 41.80352 | -77.30351 | 33852 ft | 381 kts | 223° |
| 2026-05-06 17:42 | 41.75798 | -77.33944 | 33849 ft | 381 kts | 222° |
| 2026-05-06 17:43 | 41.71234 | -77.37519 | 33837 ft | 381 kts | 222° |
| 2026-05-06 17:43 | 41.66671 | -77.41105 | 33834 ft | 381 kts | 223° |
| 2026-05-06 17:44 | 41.62098 | -77.44701 | 33823 ft | 381 kts | 223° |
| 2026-05-06 17:44 | 41.57538 | -77.48272 | 33816 ft | 380 kts | 222° |
| 2026-05-06 17:45 | 41.52972 | -77.51841 | 33812 ft | 380 kts | 223° |
| 2026-05-06 17:45 | 41.48419 | -77.55395 | 33805 ft | 380 kts | 223° |
| 2026-05-06 17:46 | 41.43845 | -77.58971 | 33800 ft | 380 kts | 223° |
| 2026-05-06 17:46 | 41.39293 | -77.62515 | 33794 ft | 380 kts | 223° |
| 2026-05-06 17:47 | 41.34725 | -77.66067 | 33794 ft | 380 kts | 223° |
| 2026-05-06 17:47 | 41.30137 | -77.69625 | 33789 ft | 380 kts | 223° |
| 2026-05-06 17:48 | 41.25571 | -77.73154 | 33793 ft | 380 kts | 223° |
| 2026-05-06 17:48 | 41.21018 | -77.76673 | 33782 ft | 380 kts | 223° |
| 2026-05-06 17:49 | 41.16458 | -77.80204 | 33792 ft | 380 kts | 223° |
| 2026-05-06 17:49 | 41.11872 | -77.83739 | 33787 ft | 380 kts | 223° |
| 2026-05-06 17:50 | 41.07291 | -77.87267 | 33796 ft | 380 kts | 223° |
| 2026-05-06 17:50 | 41.02736 | -77.90766 | 33796 ft | 380 kts | 223° |
| 2026-05-06 17:51 | 40.98136 | -77.94284 | 33796 ft | 380 kts | 223° |
| 2026-05-06 17:51 | 40.93598 | -77.97803 | 33798 ft | 375 kts | 226° |
| 2026-05-06 17:52 | 40.91587 | -77.99913 | 33800 ft | 362 kts | 234° |
| 2026-05-06 17:52 | 40.89926 | -78.02356 | 33799 ft | 352 kts | 242° |
| 2026-05-06 17:52 | 40.87078 | -78.07570 | 33802 ft | 351 kts | 242° |
| 2026-05-06 17:53 | 40.84211 | -78.12788 | 33804 ft | 351 kts | 242° |
| 2026-05-06 17:53 | 40.81330 | -78.18002 | 33799 ft | 352 kts | 242° |
| 2026-05-06 17:54 | 40.78435 | -78.23234 | 33800 ft | 351 kts | 242° |
| 2026-05-06 17:54 | 40.75565 | -78.28421 | 33802 ft | 351 kts | 242° |
| 2026-05-06 17:55 | 40.72674 | -78.33642 | 33802 ft | 351 kts | 242° |
| 2026-05-06 17:55 | 40.69796 | -78.38820 | 33803 ft | 352 kts | 242° |
| 2026-05-06 17:56 | 40.66894 | -78.44041 | 33799 ft | 352 kts | 242° |
| 2026-05-06 17:56 | 40.64015 | -78.49227 | 33804 ft | 352 kts | 242° |
| 2026-05-06 17:57 | 40.61110 | -78.54445 | 33802 ft | 352 kts | 242° |
| 2026-05-06 17:57 | 40.58225 | -78.59605 | 33806 ft | 352 kts | 242° |
| 2026-05-06 17:58 | 40.55314 | -78.64809 | 33820 ft | 353 kts | 242° |
| 2026-05-06 17:58 | 40.52395 | -78.70024 | 33832 ft | 353 kts | 242° |
| 2026-05-06 17:59 | 40.49491 | -78.75196 | 33847 ft | 353 kts | 242° |
| 2026-05-06 17:59 | 40.46559 | -78.80401 | 33850 ft | 353 kts | 242° |
| 2026-05-06 18:00 | 40.43637 | -78.85584 | 33860 ft | 354 kts | 242° |
| 2026-05-06 18:00 | 40.40726 | -78.90742 | 33860 ft | 354 kts | 242° |
| 2026-05-06 18:01 | 40.37791 | -78.95937 | 33865 ft | 354 kts | 242° |
| 2026-05-06 18:01 | 40.34850 | -79.01141 | 33861 ft | 354 kts | 242° |
| 2026-05-06 18:02 | 40.31908 | -79.06331 | 33861 ft | 354 kts | 242° |
| 2026-05-06 18:02 | 40.28978 | -79.11495 | 33867 ft | 354 kts | 242° |
| 2026-05-06 18:03 | 40.26043 | -79.16646 | 33897 ft | 354 kts | 242° |
| 2026-05-06 18:03 | 40.23088 | -79.21816 | 33902 ft | 354 kts | 242° |
| 2026-05-06 18:04 | 40.20138 | -79.26986 | 33914 ft | 353 kts | 242° |
| 2026-05-06 18:04 | 40.17200 | -79.32126 | 33930 ft | 353 kts | 242° |
| 2026-05-06 18:05 | 40.14278 | -79.37245 | 33928 ft | 353 kts | 242° |
| 2026-05-06 18:05 | 40.11329 | -79.42396 | 33916 ft | 352 kts | 242° |
| 2026-05-06 18:06 | 40.08393 | -79.47496 | 33911 ft | 352 kts | 242° |
| 2026-05-06 18:06 | 40.05463 | -79.52577 | 33933 ft | 352 kts | 242° |
| 2026-05-06 18:07 | 40.02518 | -79.57688 | 33941 ft | 351 kts | 242° |
| 2026-05-06 18:07 | 39.99573 | -79.62789 | 33935 ft | 351 kts | 242° |
| 2026-05-06 18:08 | 39.96643 | -79.67863 | 33936 ft | 351 kts | 242° |
| 2026-05-06 18:08 | 39.93692 | -79.72965 | 33938 ft | 352 kts | 242° |
| 2026-05-06 18:09 | 39.90748 | -79.78041 | 33941 ft | 352 kts | 242° |
| 2026-05-06 18:09 | 39.87792 | -79.83131 | 33931 ft | 352 kts | 242° |
| 2026-05-06 18:10 | 39.84822 | -79.88226 | 33920 ft | 352 kts | 242° |
| 2026-05-06 18:10 | 39.81879 | -79.93276 | 33922 ft | 352 kts | 242° |